createdAt,value
2023-02-06T00:01:15.061Z,119.60
2023-02-06T00:03:41.873Z,122.63
2023-02-06T00:06:08.720Z,111.53
2023-02-06T00:08:35.568Z,102.47
2023-02-06T00:11:07.483Z,106.93
2023-02-06T00:13:35.405Z,93.93
2023-02-06T00:16:02.267Z,93.80
2023-02-06T00:18:34.275Z,96.03
2023-02-06T00:21:03.333Z,99.43
2023-02-06T00:23:30.160Z,92.30
2023-02-06T00:25:56.942Z,85.30
2023-02-06T00:28:23.706Z,88.07
2023-02-06T00:30:53.199Z,87.77
2023-02-06T00:33:21.300Z,78.10
2023-02-06T00:35:50.360Z,82.77
2023-02-06T00:38:19.353Z,79.43
2023-02-06T00:40:48.650Z,83.90
2023-02-06T00:43:17.555Z,82.60
2023-02-06T00:45:44.310Z,86.90
2023-02-06T00:48:11.198Z,90.03
2023-02-06T00:50:37.990Z,95.07
2023-02-06T00:53:04.834Z,86.80
2023-02-06T00:55:31.690Z,95.80
2023-02-06T00:57:58.528Z,88.40
2023-02-06T01:00:25.378Z,92.27
2023-02-06T01:02:52.182Z,85.67
2023-02-06T01:05:21.209Z,92.93
2023-02-06T01:07:47.950Z,95.97
2023-02-06T01:10:17.317Z,91.67
2023-02-06T01:12:44.073Z,90.07
2023-02-06T01:15:11.677Z,94.53
2023-02-06T01:17:38.807Z,99.30
2023-02-06T01:20:06.970Z,91.13
2023-02-06T01:22:34.649Z,100.80
2023-02-06T01:25:01.547Z,106.77
2023-02-06T01:27:28.377Z,106.63
2023-02-06T01:30:02.148Z,106.43
2023-02-06T01:32:31.154Z,105.07
2023-02-06T01:34:57.953Z,95.40
2023-02-06T01:37:28.829Z,103.60
2023-02-06T01:39:58.182Z,99.80
2023-02-06T01:42:27.505Z,101.47
2023-02-06T01:45:25.090Z,98.83
2023-02-06T01:48:00.291Z,100.60
2023-02-06T01:50:28.483Z,100.27
2023-02-06T01:52:59.846Z,92.63
2023-02-06T01:55:28.756Z,94.87
2023-02-06T01:57:55.571Z,98.90
2023-02-06T02:00:22.378Z,86.27
2023-02-06T02:02:49.185Z,96.20
2023-02-06T02:05:18.953Z,99.63
2023-02-06T02:07:51.583Z,84.13
2023-02-06T02:10:18.529Z,86.57
2023-02-06T02:12:45.325Z,83.50
2023-02-06T02:15:12.243Z,83.57
2023-02-06T02:17:39.032Z,84.80
2023-02-06T02:20:20.804Z,87.60
2023-02-06T02:23:00.135Z,96.70
2023-02-06T02:25:41.910Z,87.40
2023-02-06T02:28:27.143Z,92.90
2023-02-06T02:31:11.421Z,84.80
2023-02-06T02:33:54.283Z,83.97
2023-02-06T02:36:43.950Z,85.73
2023-02-06T02:39:32.512Z,82.03
2023-02-06T02:42:11.003Z,89.93
2023-02-06T02:44:46.800Z,86.23
2023-02-06T02:47:16.880Z,82.17
2023-02-06T02:49:44.513Z,85.87
2023-02-06T02:52:11.977Z,96.53
2023-02-06T02:54:43.562Z,90.07
2023-02-06T02:57:15.373Z,90.67
2023-02-06T02:59:45.132Z,92.87
2023-02-06T03:02:16.089Z,90.13
2023-02-06T03:04:49.007Z,88.63
2023-02-06T03:07:38.763Z,93.47
2023-02-06T03:10:26.029Z,104.27
2023-02-06T03:13:04.548Z,90.63
2023-02-06T03:15:56.818Z,92.23
2023-02-06T03:18:33.138Z,82.87
2023-02-06T03:20:59.922Z,94.53
2023-02-06T03:23:29.459Z,97.67
2023-02-06T03:25:59.590Z,90.37
2023-02-06T03:28:35.743Z,89.20
2023-02-06T03:31:04.883Z,104.87
2023-02-06T03:33:37.312Z,95.53
2023-02-06T03:36:05.236Z,101.83
2023-02-06T03:38:32.078Z,99.97
2023-02-06T03:40:58.924Z,96.40
2023-02-06T03:43:28.683Z,97.57
2023-02-06T03:46:00.316Z,100.97
2023-02-06T03:48:32.682Z,98.83
2023-02-06T03:51:03.522Z,99.70
2023-02-06T03:53:30.301Z,93.67
2023-02-06T03:55:59.593Z,105.17
2023-02-06T03:58:26.437Z,96.20
2023-02-06T04:00:53.280Z,100.87
2023-02-06T04:03:21.515Z,98.43
2023-02-06T04:05:48.415Z,97.40
2023-02-06T04:08:15.331Z,92.47
2023-02-06T04:10:42.080Z,94.50
2023-02-06T04:13:08.843Z,105.97
2023-02-06T04:15:35.987Z,92.70
2023-02-06T04:18:03.951Z,103.47
2023-02-06T04:20:31.403Z,101.20
2023-02-06T04:22:58.659Z,96.33
2023-02-06T04:25:27.890Z,106.00
2023-02-06T04:27:57.154Z,97.13
2023-02-06T04:30:28.573Z,97.50
2023-02-06T04:32:55.414Z,101.10
2023-02-06T04:35:22.292Z,96.77
2023-02-06T04:37:49.113Z,115.70
2023-02-06T04:40:18.524Z,109.43
2023-02-06T04:42:45.270Z,111.07
2023-02-06T04:45:12.053Z,107.87
2023-02-06T04:47:38.806Z,110.00
2023-02-06T04:50:08.438Z,106.93
2023-02-06T04:52:37.388Z,114.83
2023-02-06T04:55:04.242Z,110.50
2023-02-06T04:57:31.069Z,105.20
2023-02-06T04:59:57.843Z,110.03
2023-02-06T05:02:24.660Z,111.20
2023-02-06T05:04:54.075Z,101.37
2023-02-06T05:07:23.070Z,100.13
2023-02-06T05:09:49.834Z,100.57
2023-02-06T05:12:16.650Z,107.43
2023-02-06T05:14:43.424Z,105.37
2023-02-06T05:17:10.216Z,106.83
2023-02-06T05:19:36.974Z,108.83
2023-02-06T05:22:03.817Z,118.97
2023-02-06T05:24:32.871Z,113.07
2023-02-06T05:26:59.701Z,121.43
2023-02-06T05:29:26.541Z,136.60
2023-02-06T05:31:53.529Z,136.93
2023-02-06T05:34:20.390Z,135.83
2023-02-06T05:36:49.287Z,122.07
2023-02-06T05:39:16.117Z,124.93
2023-02-06T05:41:45.356Z,118.03
2023-02-06T05:44:12.267Z,123.70
2023-02-06T05:46:41.328Z,139.03
2023-02-06T05:49:10.388Z,137.00
2023-02-06T05:51:39.291Z,132.80
2023-02-06T05:54:06.091Z,146.63
2023-02-06T05:56:35.332Z,144.50
2023-02-06T05:59:02.085Z,137.37
2023-02-06T06:01:29.284Z,144.00
2023-02-06T06:03:58.236Z,141.97
2023-02-06T06:06:25.006Z,145.53
2023-02-06T06:08:51.770Z,157.57
2023-02-06T06:11:18.583Z,138.23
2023-02-06T06:13:47.940Z,145.23
2023-02-06T06:16:17.263Z,143.97
2023-02-06T06:18:44.015Z,152.03
2023-02-06T06:21:10.811Z,138.30
2023-02-06T06:23:37.620Z,132.50
2023-02-06T06:26:04.597Z,116.27
2023-02-06T06:28:31.398Z,132.63
2023-02-06T06:31:05.428Z,119.33
2023-02-06T06:33:32.308Z,138.83
2023-02-06T06:36:03.484Z,124.43
2023-02-06T06:38:30.237Z,138.87
2023-02-06T06:40:57.035Z,129.17
2023-02-06T06:43:24.256Z,131.50
2023-02-06T06:45:51.090Z,127.60
2023-02-06T06:48:17.918Z,147.10
2023-02-06T06:50:44.668Z,133.00
2023-02-06T06:53:11.476Z,129.43
2023-02-06T06:55:38.387Z,138.73
2023-02-06T06:58:05.296Z,142.70
2023-02-06T07:00:34.531Z,154.30
2023-02-06T07:03:03.937Z,147.30
2023-02-06T07:05:30.859Z,152.10
2023-02-06T07:07:57.620Z,147.60
2023-02-06T07:10:24.424Z,150.07
2023-02-06T07:12:53.641Z,145.53
2023-02-06T07:15:20.733Z,135.70
2023-02-06T07:17:47.479Z,141.40
2023-02-06T07:20:14.310Z,139.10
2023-02-06T07:22:43.632Z,137.37
2023-02-06T07:25:10.421Z,125.77
2023-02-06T07:27:37.243Z,119.90
2023-02-06T07:30:06.469Z,114.53
2023-02-06T07:32:36.139Z,106.87
2023-02-06T07:35:03.202Z,107.30
2023-02-06T07:37:29.978Z,101.03
2023-02-06T07:39:56.791Z,99.73
2023-02-06T07:42:23.597Z,99.00
2023-02-06T07:44:50.543Z,105.27
2023-02-06T07:47:17.369Z,92.97
2023-02-06T07:49:45.293Z,95.33
2023-02-06T07:52:12.093Z,106.27
2023-02-06T07:54:41.486Z,92.77
2023-02-06T07:57:08.235Z,91.47
2023-02-06T07:59:35.016Z,88.00
2023-02-06T08:02:01.806Z,93.77
2023-02-06T08:04:35.056Z,92.17
2023-02-06T08:07:03.025Z,86.30
2023-02-06T08:09:32.196Z,81.90
2023-02-06T08:11:59.000Z,77.07
2023-02-06T08:14:28.712Z,74.47
2023-02-06T08:16:55.644Z,87.83
2023-02-06T08:19:25.028Z,78.73
2023-02-06T08:21:51.880Z,84.60
2023-02-06T08:24:18.642Z,89.63
2023-02-06T08:26:47.548Z,88.03
2023-02-06T08:29:16.543Z,82.87
2023-02-06T08:31:43.603Z,86.57
2023-02-06T08:34:14.534Z,83.53
2023-02-06T08:36:43.177Z,93.17
2023-02-06T08:39:14.978Z,96.57
2023-02-06T08:41:42.886Z,109.57
2023-02-06T08:44:17.236Z,111.97
2023-02-06T08:46:44.754Z,107.67
2023-02-06T08:49:18.809Z,107.90
2023-02-06T08:51:50.247Z,116.50
2023-02-06T08:54:21.236Z,113.83
2023-02-06T08:56:50.936Z,112.73
2023-02-06T08:59:18.895Z,109.07
2023-02-06T09:01:46.246Z,107.90
2023-02-06T09:04:13.613Z,106.20
2023-02-06T09:06:42.719Z,107.63
2023-02-06T09:09:09.783Z,110.83
2023-02-06T09:11:39.936Z,115.00
2023-02-06T09:14:07.482Z,120.43
2023-02-06T09:16:37.985Z,113.93
2023-02-06T09:19:04.897Z,105.93
2023-02-06T09:21:35.068Z,113.03
2023-02-06T09:24:06.697Z,104.13
2023-02-06T09:26:58.899Z,108.00
2023-02-06T09:29:29.025Z,110.17
2023-02-06T09:31:57.484Z,114.13
2023-02-06T09:34:30.243Z,109.30
2023-02-06T09:36:57.898Z,115.70
2023-02-06T09:39:25.047Z,106.93
2023-02-06T09:41:56.735Z,110.90
2023-02-06T09:44:36.917Z,99.77
2023-02-06T09:47:23.596Z,96.50
2023-02-06T09:49:58.708Z,96.33
2023-02-06T09:52:37.784Z,90.10
2023-02-06T09:55:29.592Z,87.17
2023-02-06T09:58:05.155Z,76.37
2023-02-06T10:00:49.383Z,83.00
2023-02-06T10:03:44.234Z,78.83
2023-02-06T10:06:21.638Z,80.57
2023-02-06T10:09:01.716Z,81.70
2023-02-06T10:11:28.487Z,82.73
2023-02-06T10:13:57.425Z,82.20
2023-02-06T10:16:39.624Z,74.77
2023-02-06T10:19:37.904Z,76.93
2023-02-06T10:22:30.410Z,85.90
2023-02-06T10:25:35.489Z,94.97
2023-02-06T10:28:20.662Z,76.87
2023-02-06T10:30:59.888Z,99.57
2023-02-06T10:33:56.154Z,87.27
2023-02-06T10:36:22.921Z,89.10
2023-02-06T10:39:27.835Z,84.50
2023-02-06T10:42:10.527Z,69.47
2023-02-06T10:45:19.739Z,67.10
2023-02-06T10:47:58.759Z,79.07
2023-02-06T10:50:35.046Z,81.07
2023-02-06T10:53:18.803Z,75.83
2023-02-06T10:55:57.569Z,98.57
2023-02-06T10:58:51.993Z,81.87
2023-02-06T11:01:26.021Z,96.57
2023-02-06T11:04:12.407Z,86.67
2023-02-06T11:06:40.255Z,82.37
2023-02-06T11:09:12.107Z,69.33
2023-02-06T11:11:46.717Z,68.57
2023-02-06T11:14:51.064Z,62.43
2023-02-06T11:17:18.531Z,72.77
2023-02-06T11:19:45.367Z,72.70
2023-02-06T11:22:14.922Z,70.13
2023-02-06T11:24:59.474Z,69.30
2023-02-06T11:27:26.277Z,66.80
2023-02-06T11:29:53.136Z,60.83
2023-02-06T11:32:38.066Z,54.00
2023-02-06T11:35:11.022Z,49.57
2023-02-06T11:37:38.629Z,55.60
2023-02-06T11:40:20.566Z,64.00
2023-02-06T11:42:49.154Z,62.37
2023-02-06T11:45:31.667Z,53.97
2023-02-06T11:47:58.700Z,66.73
2023-02-06T11:50:36.002Z,55.63
2023-02-06T11:53:18.095Z,62.63
2023-02-06T11:56:01.668Z,65.83
2023-02-06T11:58:29.182Z,58.23
2023-02-06T12:00:55.929Z,63.50
2023-02-06T12:03:36.203Z,58.53
2023-02-06T12:06:21.311Z,61.60
2023-02-06T12:08:52.590Z,69.20
2023-02-06T12:11:30.875Z,66.57
2023-02-06T12:14:11.679Z,72.30
2023-02-06T12:16:42.200Z,74.97
2023-02-06T12:19:37.466Z,74.60
2023-02-06T12:22:12.147Z,80.07
2023-02-06T12:24:41.238Z,82.67
2023-02-06T12:27:27.631Z,78.40
2023-02-06T12:30:05.336Z,87.53
2023-02-06T12:32:35.266Z,91.43
2023-02-06T12:35:21.811Z,94.00
2023-02-06T12:37:53.316Z,91.00
2023-02-06T12:40:42.212Z,94.93
2023-02-06T12:43:15.967Z,101.97
2023-02-06T12:46:08.850Z,102.87
2023-02-06T12:48:41.523Z,105.07
2023-02-06T12:51:43.666Z,111.10
2023-02-06T12:54:16.988Z,99.77
2023-02-06T12:56:48.626Z,106.37
2023-02-06T12:59:38.501Z,97.23
2023-02-06T13:02:18.965Z,100.37
2023-02-06T13:04:48.332Z,91.37
2023-02-06T13:07:17.394Z,95.83
2023-02-06T13:09:52.692Z,90.13
2023-02-06T13:12:29.101Z,106.13
2023-02-06T13:14:59.825Z,98.27
2023-02-06T13:17:32.616Z,112.43
2023-02-06T13:20:22.142Z,109.23
2023-02-06T13:23:10.392Z,105.27
2023-02-06T13:25:37.463Z,98.93
2023-02-06T13:28:22.913Z,95.77
2023-02-06T13:30:53.133Z,94.90
2023-02-06T13:33:23.237Z,91.37
2023-02-06T13:36:03.934Z,90.47
2023-02-06T13:38:35.905Z,98.03
2023-02-06T13:41:14.586Z,90.33
2023-02-06T13:44:01.053Z,97.93
2023-02-06T13:46:33.358Z,97.90
2023-02-06T13:49:09.058Z,103.23
2023-02-06T13:52:00.434Z,109.40
2023-02-06T13:54:50.625Z,96.00
2023-02-06T13:57:20.380Z,104.20
2023-02-06T14:00:02.042Z,111.47
2023-02-06T14:02:39.332Z,103.57
2023-02-06T14:05:10.807Z,105.93
2023-02-06T14:08:15.240Z,104.93
2023-02-06T14:11:16.860Z,103.53
2023-02-06T14:13:43.670Z,102.77
2023-02-06T14:16:18.791Z,118.40
2023-02-06T14:19:00.030Z,109.67
2023-02-06T14:21:48.481Z,104.07
2023-02-06T14:24:40.416Z,109.90
2023-02-06T14:27:34.402Z,105.20
2023-02-06T14:30:35.073Z,104.83
2023-02-06T14:33:23.030Z,104.30
2023-02-06T14:36:10.837Z,111.07
2023-02-06T14:38:50.483Z,111.53
2023-02-06T14:41:17.271Z,120.23
2023-02-06T14:43:44.728Z,117.97
2023-02-06T14:46:15.972Z,124.40
2023-02-06T14:48:48.372Z,128.23
2023-02-06T14:51:21.112Z,135.70
2023-02-06T14:53:53.209Z,125.00
2023-02-06T14:56:27.365Z,126.27
2023-02-06T14:58:54.444Z,128.53
2023-02-06T15:01:27.644Z,130.37
2023-02-06T15:04:09.569Z,129.23
2023-02-06T15:06:42.338Z,130.37
2023-02-06T15:09:20.872Z,124.10
2023-02-06T15:11:54.192Z,115.70
2023-02-06T15:14:26.842Z,120.90
2023-02-06T15:16:59.347Z,123.50
2023-02-06T15:19:28.074Z,116.10
2023-02-06T15:22:01.630Z,128.23
2023-02-06T15:24:40.522Z,120.77
2023-02-06T15:27:10.139Z,117.47
2023-02-06T15:29:40.731Z,121.10
2023-02-06T15:32:17.983Z,122.67
2023-02-06T15:34:47.324Z,128.73
2023-02-06T15:37:34.333Z,139.97
2023-02-06T15:40:06.507Z,137.37
2023-02-06T15:42:33.308Z,131.77
2023-02-06T15:45:00.100Z,131.07
2023-02-06T15:47:26.945Z,134.80
2023-02-06T15:49:54.287Z,148.70
2023-02-06T15:52:41.726Z,154.43
2023-02-06T15:55:26.021Z,155.13
2023-02-06T15:57:52.898Z,136.40
2023-02-06T16:00:25.378Z,150.10
2023-02-06T16:02:53.085Z,152.27
2023-02-06T16:05:29.971Z,147.77
2023-02-06T16:07:58.987Z,146.57
2023-02-06T16:10:30.514Z,144.60
2023-02-06T16:12:59.001Z,149.10
2023-02-06T16:15:36.851Z,143.90
2023-02-06T16:18:36.076Z,143.63
2023-02-06T16:21:20.700Z,155.00
2023-02-06T16:24:04.868Z,148.90
2023-02-06T16:26:49.307Z,143.03
2023-02-06T16:29:17.758Z,155.17
2023-02-06T16:31:44.675Z,133.30
2023-02-06T16:34:28.182Z,138.00
2023-02-06T16:36:57.175Z,145.87
2023-02-06T16:39:24.156Z,143.17
2023-02-06T16:41:51.933Z,132.80
2023-02-06T16:44:18.939Z,143.80
2023-02-06T16:46:46.772Z,138.03
2023-02-06T16:49:18.074Z,125.47
2023-02-06T16:51:44.980Z,134.33
2023-02-06T16:54:23.689Z,139.77
2023-02-06T16:56:50.499Z,129.13
2023-02-06T16:59:17.305Z,126.43
2023-02-06T17:01:44.115Z,129.63
2023-02-06T17:04:10.940Z,137.57
2023-02-06T17:06:37.765Z,127.07
2023-02-06T17:09:09.068Z,123.63
2023-02-06T17:11:36.634Z,128.93
2023-02-06T17:14:03.500Z,125.87
2023-02-06T17:16:30.547Z,129.50
2023-02-06T17:18:57.547Z,113.50
2023-02-06T17:21:29.766Z,116.43
2023-02-06T17:23:56.560Z,123.53
2023-02-06T17:26:25.781Z,117.53
2023-02-06T17:28:52.667Z,123.60
2023-02-06T17:31:19.745Z,125.93
2023-02-06T17:33:46.583Z,130.73
2023-02-06T17:36:15.968Z,116.67
2023-02-06T17:38:42.870Z,119.97
2023-02-06T17:41:09.728Z,128.67
2023-02-06T17:43:37.512Z,128.43
2023-02-06T17:46:05.437Z,124.83
2023-02-06T17:48:36.415Z,126.73
2023-02-06T17:51:05.023Z,136.50
2023-02-06T17:53:31.791Z,138.40
2023-02-06T17:56:07.547Z,136.50
2023-02-06T17:58:36.778Z,145.57
2023-02-06T18:01:03.571Z,138.27
2023-02-06T18:03:30.397Z,151.47
2023-02-06T18:06:00.563Z,131.60
2023-02-06T18:08:29.940Z,153.33
2023-02-06T18:10:59.228Z,149.53
2023-02-06T18:13:27.887Z,144.93
2023-02-06T18:15:57.812Z,142.33
2023-02-06T18:18:26.148Z,147.90
2023-02-06T18:20:53.053Z,142.07
2023-02-06T18:23:19.853Z,127.37
2023-02-06T18:25:46.638Z,141.77
2023-02-06T18:28:17.386Z,135.27
2023-02-06T18:30:46.913Z,130.07
2023-02-06T18:33:13.838Z,144.77
2023-02-06T18:35:41.818Z,131.83
2023-02-06T18:38:11.012Z,143.53
2023-02-06T18:40:41.035Z,130.50
2023-02-06T18:43:10.323Z,143.70
2023-02-06T18:45:38.001Z,133.80
2023-02-06T18:48:05.881Z,125.53
2023-02-06T18:50:34.224Z,139.33
2023-02-06T18:53:06.712Z,130.27
2023-02-06T18:55:35.086Z,137.07
2023-02-06T18:58:04.893Z,126.80
2023-02-06T19:00:33.606Z,128.20
2023-02-06T19:03:00.524Z,132.90
2023-02-06T19:05:29.033Z,131.80
2023-02-06T19:08:00.550Z,132.10
2023-02-06T19:10:29.813Z,130.67
2023-02-06T19:12:56.591Z,121.70
2023-02-06T19:15:23.398Z,126.70
2023-02-06T19:17:50.300Z,126.40
2023-02-06T19:20:17.157Z,137.17
2023-02-06T19:22:43.956Z,128.10
2023-02-06T19:25:14.047Z,139.23
2023-02-06T19:27:41.279Z,133.77
2023-02-06T19:30:08.659Z,129.57
2023-02-06T19:32:35.476Z,138.30
2023-02-06T19:35:03.018Z,141.97
2023-02-06T19:37:32.208Z,130.47
2023-02-06T19:40:01.220Z,142.50
2023-02-06T19:42:30.207Z,145.30
2023-02-06T19:44:57.057Z,147.30
2023-02-06T19:47:23.939Z,140.07
2023-02-06T19:49:52.182Z,152.60
2023-02-06T19:52:19.196Z,143.10
2023-02-06T19:54:47.816Z,139.60
2023-02-06T19:57:19.402Z,140.03
2023-02-06T19:59:46.248Z,144.03
2023-02-06T20:02:14.969Z,138.73
2023-02-06T20:04:41.858Z,141.17
2023-02-06T20:07:08.827Z,138.20
2023-02-06T20:09:36.598Z,140.20
2023-02-06T20:12:03.590Z,137.67
2023-02-06T20:14:30.397Z,138.40
2023-02-06T20:16:57.293Z,131.47
2023-02-06T20:19:29.161Z,132.73
2023-02-06T20:21:58.061Z,133.07
2023-02-06T20:24:27.796Z,131.87
2023-02-06T20:26:56.625Z,137.97
2023-02-06T20:29:33.791Z,132.40
2023-02-06T20:32:00.927Z,133.17
2023-02-06T20:34:27.904Z,136.50
2023-02-06T20:36:55.235Z,123.30
2023-02-06T20:39:22.097Z,126.73
2023-02-06T20:41:51.051Z,122.50
2023-02-06T20:44:20.477Z,119.30
2023-02-06T20:46:47.519Z,121.77
2023-02-06T20:49:19.367Z,119.63
2023-02-06T20:51:49.427Z,126.60
2023-02-06T20:54:18.890Z,122.07
2023-02-06T20:56:45.806Z,124.23
2023-02-06T20:59:14.115Z,119.20
2023-02-06T21:01:43.528Z,114.20
2023-02-06T21:04:11.536Z,119.80
2023-02-06T21:06:38.438Z,117.37
2023-02-06T21:09:06.168Z,118.47
2023-02-06T21:11:35.092Z,117.73
2023-02-06T21:14:02.633Z,123.07
2023-02-06T21:16:30.151Z,129.97
2023-02-06T21:18:57.501Z,118.83
2023-02-06T21:21:25.618Z,118.50
2023-02-06T21:23:52.642Z,127.23
2023-02-06T21:26:19.558Z,119.37
2023-02-06T21:28:46.479Z,128.50
2023-02-06T21:31:24.642Z,121.30
2023-02-06T21:33:51.805Z,139.77
2023-02-06T21:36:23.552Z,123.50
2023-02-06T21:38:50.424Z,126.60
2023-02-06T21:41:20.192Z,125.23
2023-02-06T21:43:47.056Z,123.43
2023-02-06T21:46:13.977Z,130.30
2023-02-06T21:48:44.045Z,122.03
2023-02-06T21:51:16.036Z,135.40
2023-02-06T21:53:45.629Z,123.53
2023-02-06T21:56:15.818Z,128.13
2023-02-06T21:58:42.593Z,120.93
2023-02-06T22:01:17.479Z,126.50
2023-02-06T22:03:47.350Z,124.20
2023-02-06T22:06:14.444Z,125.00
2023-02-06T22:08:43.585Z,124.93
2023-02-06T22:11:21.694Z,125.23
2023-02-06T22:13:48.626Z,129.03
2023-02-06T22:16:17.206Z,129.07
2023-02-06T22:18:46.405Z,126.03
2023-02-06T22:21:22.641Z,130.93
2023-02-06T22:23:50.052Z,123.43
2023-02-06T22:26:19.332Z,138.40
2023-02-06T22:28:46.207Z,131.23
2023-02-06T22:31:15.956Z,137.57
2023-02-06T22:33:42.953Z,147.47
2023-02-06T22:36:13.536Z,151.77
2023-02-06T22:38:40.603Z,146.00
2023-02-06T22:41:11.653Z,159.93
2023-02-06T22:43:38.859Z,169.87
2023-02-06T22:46:06.262Z,156.63
2023-02-06T22:48:35.302Z,160.50
2023-02-06T22:51:11.712Z,184.67
2023-02-06T22:53:38.761Z,161.53
2023-02-06T22:56:29.287Z,157.73
2023-02-06T22:59:07.514Z,143.67
2023-02-06T23:01:37.025Z,162.03
2023-02-06T23:04:06.920Z,150.60
2023-02-06T23:06:34.328Z,144.40
2023-02-06T23:09:01.887Z,135.93
2023-02-06T23:11:28.820Z,133.80
2023-02-06T23:13:56.753Z,138.00
2023-02-06T23:16:26.413Z,140.03
2023-02-06T23:18:53.271Z,138.63
2023-02-06T23:21:23.151Z,138.47
2023-02-06T23:23:49.996Z,120.97
2023-02-06T23:26:18.828Z,126.30
2023-02-06T23:28:45.854Z,123.80
2023-02-06T23:31:12.839Z,123.10
2023-02-06T23:33:39.639Z,132.30
2023-02-06T23:36:07.862Z,125.30
2023-02-06T23:38:36.967Z,123.33
2023-02-06T23:41:10.377Z,119.03
2023-02-06T23:43:37.613Z,123.77
2023-02-06T23:46:05.008Z,124.37
2023-02-06T23:48:32.075Z,114.60
2023-02-06T23:51:01.303Z,124.50
2023-02-06T23:53:30.628Z,113.53
2023-02-06T23:55:57.577Z,123.07
2023-02-06T23:58:26.787Z,117.80
